This is the latest recevied weather packets stored in our database for station/object N4QD-13. If no packets are shown the sender has not sent any weather packets the latest 1 day(s).
| Time | Temp. | Humidity | Pressure | Rain* | Wind** | Luminosity | Snow |
|---|---|---|---|---|---|---|---|
| 1778010211 | 27.78° C | 28% | 1011.4 hPa | 0 mm | 4.02 m/s, 42° | 544 W/m² | - |
| 1778009912 | 27.22° C | 32% | 1011.3 hPa | 0 mm | 2.68 m/s, 84° | 790 W/m² | - |
| 1778009610 | 27.22° C | 33% | 1011.2 hPa | 0 mm | 1.79 m/s, 27° | 664 W/m² | - |
| 1778009307 | 27.22° C | 32% | 1011.2 hPa | 0 mm | 2.68 m/s, 256° | 708 W/m² | - |
| 1778009005 | 27.78° C | 31% | 1011.6 hPa | 0 mm | 4.02 m/s, 64° | 671 W/m² | - |
| 1778008703 | 27.78° C | 32% | 1011.5 hPa | 0 mm | 2.24 m/s, 5° | 650 W/m² | - |
| 1778008401 | 27.22° C | 33% | 1011.4 hPa | 0 mm | 1.79 m/s, 29° | 719 W/m² | - |
| 1778008097 | 27.78° C | 33% | 1011.4 hPa | 0 mm | 5.36 m/s, 79° | 798 W/m² | - |
| 1778007793 | 27.78° C | 33% | 1011.6 hPa | 0 mm | 3.58 m/s, 342° | 795 W/m² | - |
| 1778007489 | 27.22° C | 33% | 1011.6 hPa | 0 mm | 3.13 m/s, 59° | 763 W/m² | - |
| 1778007185 | 26.67° C | 33% | 1011.8 hPa | 0 mm | 1.79 m/s, 81° | 749 W/m² | - |
| 1778006881 | 26.67° C | 32% | 1011.7 hPa | 0 mm | 4.02 m/s, 94° | 741 W/m² | - |
| 1778006579 | 27.22° C | 33% | 1012 hPa | 0 mm | 2.68 m/s, 62° | 756 W/m² | - |
| 1778006276 | 27.78° C | 34% | 1012 hPa | 0 mm | 1.79 m/s, 37° | 762 W/m² | - |
| 1778005973 | 27.22° C | 34% | 1012.3 hPa | 0 mm | 3.58 m/s, 334° | 769 W/m² | - |
| 1778005670 | 26.67° C | 38% | 1012.2 hPa | 0 mm | 2.68 m/s, 335° | 719 W/m² | - |
| 1778005366 | 27.22° C | 38% | 1012.5 hPa | 0 mm | 1.79 m/s, 22° | 688 W/m² | - |
| 1778005062 | 26.67° C | 38% | 1012.4 hPa | 0 mm | 3.13 m/s, 42° | 732 W/m² | - |
| 1778004760 | 27.22° C | 38% | 1012.5 hPa | 0 mm | 4.47 m/s, 34° | 681 W/m² | - |
| 1778004457 | 26.67° C | 37% | 1012.6 hPa | 0 mm | 4.02 m/s, 338° | 698 W/m² | - |
| 1778004153 | 26.67° C | 37% | 1012.6 hPa | 0 mm | 2.24 m/s, 32° | 720 W/m² | - |
| 1778003850 | 26.67° C | 38% | 1012.9 hPa | 0 mm | 2.68 m/s, 75° | 706 W/m² | - |
| 1778003546 | 26.67° C | 39% | 1013 hPa | 0 mm | 0.89 m/s, 63° | 728 W/m² | - |
| 1778003243 | 26.11° C | 37% | 1012.9 hPa | 0 mm | 3.13 m/s, 336° | 750 W/m² | - |
| 1778002940 | 26.11° C | 39% | 1012.9 hPa | 0 mm | 1.79 m/s, 108° | 726 W/m² | - |
* Rain latest hour (hover to see other rain measurements)
** Current wind speed in m/s (hover to see current wind gust speed)